sensor_id;sensor_type;location;lat;lon;timestamp;P1;durP1;ratioP1;P2;durP2;ratioP2
6689;SDS011;3382;51.576;8.076;2023-04-03T00:01:06;6.73;;;4.73;;
6689;SDS011;3382;51.576;8.076;2023-04-03T00:03:33;6.60;;;5.27;;
6689;SDS011;3382;51.576;8.076;2023-04-03T00:05:58;7.13;;;5.43;;
6689;SDS011;3382;51.576;8.076;2023-04-03T00:08:24;4.97;;;3.70;;
6689;SDS011;3382;51.576;8.076;2023-04-03T00:10:50;7.13;;;5.10;;
6689;SDS011;3382;51.576;8.076;2023-04-03T00:13:16;6.27;;;4.03;;
6689;SDS011;3382;51.576;8.076;2023-04-03T00:15:41;4.20;;;3.20;;
6689;SDS011;3382;51.576;8.076;2023-04-03T00:18:07;3.13;;;2.40;;
6689;SDS011;3382;51.576;8.076;2023-04-03T00:20:33;4.87;;;2.70;;
6689;SDS011;3382;51.576;8.076;2023-04-03T00:22:59;8.23;;;3.87;;
6689;SDS011;3382;51.576;8.076;2023-04-03T00:25:26;6.40;;;3.80;;
6689;SDS011;3382;51.576;8.076;2023-04-03T00:27:52;5.60;;;3.97;;
6689;SDS011;3382;51.576;8.076;2023-04-03T00:30:18;5.50;;;3.60;;
6689;SDS011;3382;51.576;8.076;2023-04-03T00:32:47;6.70;;;3.47;;
6689;SDS011;3382;51.576;8.076;2023-04-03T00:35:14;6.33;;;3.10;;
6689;SDS011;3382;51.576;8.076;2023-04-03T00:37:41;4.77;;;2.97;;
6689;SDS011;3382;51.576;8.076;2023-04-03T00:40:07;5.03;;;3.33;;
6689;SDS011;3382;51.576;8.076;2023-04-03T00:42:34;6.03;;;2.40;;
6689;SDS011;3382;51.576;8.076;2023-04-03T00:47:27;6.87;;;2.70;;
6689;SDS011;3382;51.576;8.076;2023-04-03T00:49:53;3.00;;;2.70;;
6689;SDS011;3382;51.576;8.076;2023-04-03T00:52:20;3.60;;;2.47;;
6689;SDS011;3382;51.576;8.076;2023-04-03T00:54:49;6.67;;;3.00;;
6689;SDS011;3382;51.576;8.076;2023-04-03T00:57:17;5.53;;;2.80;;
6689;SDS011;3382;51.576;8.076;2023-04-03T00:59:44;3.43;;;2.70;;
6689;SDS011;3382;51.576;8.076;2023-04-03T01:02:14;3.93;;;2.63;;
6689;SDS011;3382;51.576;8.076;2023-04-03T01:04:41;5.40;;;2.63;;
6689;SDS011;3382;51.576;8.076;2023-04-03T01:07:09;8.13;;;2.80;;
6689;SDS011;3382;51.576;8.076;2023-04-03T01:09:47;4.17;;;2.50;;
6689;SDS011;3382;51.576;8.076;2023-04-03T01:12:20;5.83;;;2.87;;
6689;SDS011;3382;51.576;8.076;2023-04-03T01:14:50;6.03;;;2.50;;
6689;SDS011;3382;51.576;8.076;2023-04-03T01:17:26;4.87;;;2.30;;
6689;SDS011;3382;51.576;8.076;2023-04-03T01:25:32;5.70;;;2.60;;
6689;SDS011;3382;51.576;8.076;2023-04-03T01:27:59;5.47;;;2.53;;
6689;SDS011;3382;51.576;8.076;2023-04-03T01:30:26;6.00;;;2.53;;
6689;SDS011;3382;51.576;8.076;2023-04-03T01:32:57;4.10;;;2.60;;
6689;SDS011;3382;51.576;8.076;2023-04-03T01:35:23;5.80;;;2.63;;
6689;SDS011;3382;51.576;8.076;2023-04-03T01:37:48;3.37;;;2.23;;
6689;SDS011;3382;51.576;8.076;2023-04-03T01:40:14;7.43;;;2.60;;
6689;SDS011;3382;51.576;8.076;2023-04-03T01:42:40;6.33;;;2.53;;
6689;SDS011;3382;51.576;8.076;2023-04-03T01:45:06;5.17;;;2.77;;
6689;SDS011;3382;51.576;8.076;2023-04-03T01:47:32;8.03;;;2.27;;
6689;SDS011;3382;51.576;8.076;2023-04-03T01:49:57;7.37;;;2.60;;
6689;SDS011;3382;51.576;8.076;2023-04-03T01:52:23;3.57;;;2.50;;
6689;SDS011;3382;51.576;8.076;2023-04-03T01:54:49;4.03;;;2.27;;
6689;SDS011;3382;51.576;8.076;2023-04-03T01:57:15;5.53;;;2.70;;
6689;SDS011;3382;51.576;8.076;2023-04-03T01:59:41;3.77;;;2.33;;
6689;SDS011;3382;51.576;8.076;2023-04-03T02:02:07;6.73;;;2.63;;
6689;SDS011;3382;51.576;8.076;2023-04-03T02:04:33;4.37;;;2.60;;
6689;SDS011;3382;51.576;8.076;2023-04-03T02:06:58;3.57;;;2.37;;
6689;SDS011;3382;51.576;8.076;2023-04-03T02:09:24;5.03;;;2.40;;
6689;SDS011;3382;51.576;8.076;2023-04-03T02:11:51;4.13;;;2.23;;
6689;SDS011;3382;51.576;8.076;2023-04-03T02:14:17;3.97;;;2.07;;
6689;SDS011;3382;51.576;8.076;2023-04-03T02:16:42;5.93;;;2.80;;
6689;SDS011;3382;51.576;8.076;2023-04-03T02:19:08;4.17;;;2.50;;
6689;SDS011;3382;51.576;8.076;2023-04-03T02:21:34;3.63;;;2.50;;
6689;SDS011;3382;51.576;8.076;2023-04-03T02:23:59;6.60;;;3.00;;
6689;SDS011;3382;51.576;8.076;2023-04-03T02:26:25;5.13;;;2.70;;
6689;SDS011;3382;51.576;8.076;2023-04-03T02:28:51;6.03;;;2.70;;
6689;SDS011;3382;51.576;8.076;2023-04-03T02:31:17;4.97;;;2.57;;
6689;SDS011;3382;51.576;8.076;2023-04-03T02:33:42;5.90;;;2.50;;
6689;SDS011;3382;51.576;8.076;2023-04-03T02:36:08;4.67;;;2.70;;
6689;SDS011;3382;51.576;8.076;2023-04-03T02:38:34;4.60;;;2.50;;
6689;SDS011;3382;51.576;8.076;2023-04-03T02:41:03;3.90;;;2.40;;
6689;SDS011;3382;51.576;8.076;2023-04-03T02:43:30;5.93;;;2.47;;
6689;SDS011;3382;51.576;8.076;2023-04-03T02:45:55;5.47;;;2.60;;
6689;SDS011;3382;51.576;8.076;2023-04-03T02:48:21;7.07;;;2.90;;
6689;SDS011;3382;51.576;8.076;2023-04-03T02:50:47;4.70;;;2.20;;
6689;SDS011;3382;51.576;8.076;2023-04-03T02:53:13;5.33;;;2.63;;
6689;SDS011;3382;51.576;8.076;2023-04-03T02:55:39;3.23;;;2.10;;
6689;SDS011;3382;51.576;8.076;2023-04-03T02:58:04;4.80;;;2.37;;
6689;SDS011;3382;51.576;8.076;2023-04-03T03:00:30;6.50;;;2.67;;
6689;SDS011;3382;51.576;8.076;2023-04-03T03:02:56;3.27;;;2.23;;
6689;SDS011;3382;51.576;8.076;2023-04-03T03:05:21;4.17;;;2.40;;
6689;SDS011;3382;51.576;8.076;2023-04-03T03:07:47;4.13;;;2.20;;
6689;SDS011;3382;51.576;8.076;2023-04-03T03:10:13;4.00;;;2.30;;
6689;SDS011;3382;51.576;8.076;2023-04-03T03:12:39;5.80;;;2.83;;
6689;SDS011;3382;51.576;8.076;2023-04-03T03:15:05;8.43;;;2.93;;
6689;SDS011;3382;51.576;8.076;2023-04-03T03:17:31;4.37;;;2.50;;
6689;SDS011;3382;51.576;8.076;2023-04-03T03:19:57;8.30;;;2.63;;
6689;SDS011;3382;51.576;8.076;2023-04-03T03:22:23;6.50;;;2.77;;
6689;SDS011;3382;51.576;8.076;2023-04-03T03:24:48;4.53;;;2.57;;
6689;SDS011;3382;51.576;8.076;2023-04-03T03:27:14;8.47;;;2.77;;
6689;SDS011;3382;51.576;8.076;2023-04-03T03:29:41;4.70;;;2.00;;
6689;SDS011;3382;51.576;8.076;2023-04-03T03:32:07;5.77;;;2.73;;
6689;SDS011;3382;51.576;8.076;2023-04-03T03:34:32;6.03;;;2.63;;
6689;SDS011;3382;51.576;8.076;2023-04-03T03:36:58;5.30;;;2.73;;
6689;SDS011;3382;51.576;8.076;2023-04-03T03:39:24;4.63;;;2.40;;
6689;SDS011;3382;51.576;8.076;2023-04-03T03:41:49;3.67;;;2.63;;
6689;SDS011;3382;51.576;8.076;2023-04-03T03:44:15;6.10;;;2.50;;
6689;SDS011;3382;51.576;8.076;2023-04-03T03:46:41;4.83;;;2.50;;
6689;SDS011;3382;51.576;8.076;2023-04-03T03:49:06;6.77;;;2.20;;
6689;SDS011;3382;51.576;8.076;2023-04-03T03:51:32;5.00;;;2.90;;
6689;SDS011;3382;51.576;8.076;2023-04-03T03:53:57;5.20;;;3.20;;
6689;SDS011;3382;51.576;8.076;2023-04-03T03:56:23;7.73;;;3.00;;
6689;SDS011;3382;51.576;8.076;2023-04-03T03:58:49;5.10;;;2.50;;
6689;SDS011;3382;51.576;8.076;2023-04-03T04:01:14;8.00;;;3.33;;
6689;SDS011;3382;51.576;8.076;2023-04-03T04:03:41;4.97;;;3.33;;
6689;SDS011;3382;51.576;8.076;2023-04-03T04:06:07;5.17;;;3.10;;
6689;SDS011;3382;51.576;8.076;2023-04-03T04:08:33;6.67;;;3.27;;
6689;SDS011;3382;51.576;8.076;2023-04-03T04:10:58;6.00;;;2.93;;
6689;SDS011;3382;51.576;8.076;2023-04-03T04:13:24;12.97;;;3.20;;
6689;SDS011;3382;51.576;8.076;2023-04-03T04:15:50;7.47;;;2.87;;
6689;SDS011;3382;51.576;8.076;2023-04-03T04:18:15;9.17;;;3.07;;
6689;SDS011;3382;51.576;8.076;2023-04-03T04:20:44;3.57;;;2.33;;
6689;SDS011;3382;51.576;8.076;2023-04-03T04:23:10;5.37;;;2.87;;
6689;SDS011;3382;51.576;8.076;2023-04-03T04:25:36;6.30;;;2.90;;
6689;SDS011;3382;51.576;8.076;2023-04-03T04:28:01;8.23;;;3.07;;
6689;SDS011;3382;51.576;8.076;2023-04-03T04:30:27;7.57;;;3.27;;
6689;SDS011;3382;51.576;8.076;2023-04-03T04:32:52;5.23;;;3.10;;
6689;SDS011;3382;51.576;8.076;2023-04-03T04:35:18;4.87;;;2.40;;
6689;SDS011;3382;51.576;8.076;2023-04-03T04:37:43;4.57;;;2.77;;
6689;SDS011;3382;51.576;8.076;2023-04-03T04:40:09;7.13;;;2.90;;
6689;SDS011;3382;51.576;8.076;2023-04-03T04:42:35;5.87;;;2.73;;
6689;SDS011;3382;51.576;8.076;2023-04-03T04:45:01;9.60;;;2.83;;
6689;SDS011;3382;51.576;8.076;2023-04-03T04:47:27;3.93;;;2.60;;
6689;SDS011;3382;51.576;8.076;2023-04-03T04:49:54;6.90;;;3.30;;
6689;SDS011;3382;51.576;8.076;2023-04-03T04:52:20;5.50;;;2.77;;
6689;SDS011;3382;51.576;8.076;2023-04-03T04:54:46;3.73;;;2.90;;
6689;SDS011;3382;51.576;8.076;2023-04-03T04:57:11;7.73;;;3.10;;
6689;SDS011;3382;51.576;8.076;2023-04-03T04:59:37;8.13;;;2.80;;
6689;SDS011;3382;51.576;8.076;2023-04-03T05:02:02;7.37;;;2.80;;
6689;SDS011;3382;51.576;8.076;2023-04-03T05:04:28;4.47;;;2.67;;
6689;SDS011;3382;51.576;8.076;2023-04-03T05:06:54;8.13;;;3.07;;
6689;SDS011;3382;51.576;8.076;2023-04-03T05:09:20;8.73;;;3.00;;
6689;SDS011;3382;51.576;8.076;2023-04-03T05:11:45;6.40;;;2.83;;
6689;SDS011;3382;51.576;8.076;2023-04-03T05:14:11;6.70;;;2.93;;
6689;SDS011;3382;51.576;8.076;2023-04-03T05:16:37;6.53;;;2.90;;
6689;SDS011;3382;51.576;8.076;2023-04-03T05:19:02;6.93;;;3.27;;
6689;SDS011;3382;51.576;8.076;2023-04-03T05:21:28;5.67;;;2.70;;
6689;SDS011;3382;51.576;8.076;2023-04-03T05:23:57;4.50;;;2.70;;
6689;SDS011;3382;51.576;8.076;2023-04-03T05:26:28;8.17;;;3.00;;
6689;SDS011;3382;51.576;8.076;2023-04-03T05:28:54;4.57;;;3.13;;
6689;SDS011;3382;51.576;8.076;2023-04-03T05:31:20;5.07;;;2.90;;
6689;SDS011;3382;51.576;8.076;2023-04-03T05:33:46;5.40;;;3.17;;
6689;SDS011;3382;51.576;8.076;2023-04-03T05:36:12;7.20;;;3.80;;
6689;SDS011;3382;51.576;8.076;2023-04-03T05:38:38;5.60;;;2.80;;
6689;SDS011;3382;51.576;8.076;2023-04-03T05:41:04;15.50;;;3.10;;
6689;SDS011;3382;51.576;8.076;2023-04-03T05:43:30;6.97;;;2.33;;
6689;SDS011;3382;51.576;8.076;2023-04-03T05:45:56;9.00;;;2.60;;
6689;SDS011;3382;51.576;8.076;2023-04-03T05:48:22;6.03;;;2.40;;
6689;SDS011;3382;51.576;8.076;2023-04-03T05:50:48;4.83;;;2.67;;
6689;SDS011;3382;51.576;8.076;2023-04-03T05:53:18;6.63;;;2.80;;
6689;SDS011;3382;51.576;8.076;2023-04-03T05:55:47;5.90;;;3.10;;
6689;SDS011;3382;51.576;8.076;2023-04-03T05:58:13;5.63;;;2.70;;
6689;SDS011;3382;51.576;8.076;2023-04-03T06:00:38;4.77;;;2.60;;
6689;SDS011;3382;51.576;8.076;2023-04-03T06:03:05;7.70;;;3.10;;
6689;SDS011;3382;51.576;8.076;2023-04-03T06:05:31;6.00;;;2.50;;
6689;SDS011;3382;51.576;8.076;2023-04-03T06:07:56;8.97;;;2.70;;
6689;SDS011;3382;51.576;8.076;2023-04-03T06:10:22;6.57;;;2.50;;
6689;SDS011;3382;51.576;8.076;2023-04-03T06:12:48;5.53;;;2.67;;
6689;SDS011;3382;51.576;8.076;2023-04-03T06:15:15;5.90;;;2.60;;
6689;SDS011;3382;51.576;8.076;2023-04-03T06:17:41;8.40;;;2.80;;
6689;SDS011;3382;51.576;8.076;2023-04-03T06:20:07;6.27;;;3.13;;
6689;SDS011;3382;51.576;8.076;2023-04-03T06:22:34;6.70;;;3.37;;
6689;SDS011;3382;51.576;8.076;2023-04-03T06:25:00;5.17;;;2.80;;
6689;SDS011;3382;51.576;8.076;2023-04-03T06:27:26;4.07;;;2.70;;
6689;SDS011;3382;51.576;8.076;2023-04-03T06:29:52;4.03;;;2.67;;
6689;SDS011;3382;51.576;8.076;2023-04-03T06:32:17;5.93;;;2.30;;
6689;SDS011;3382;51.576;8.076;2023-04-03T06:34:43;7.20;;;2.77;;
6689;SDS011;3382;51.576;8.076;2023-04-03T06:37:19;8.40;;;2.67;;
6689;SDS011;3382;51.576;8.076;2023-04-03T06:39:46;5.30;;;2.60;;
6689;SDS011;3382;51.576;8.076;2023-04-03T06:42:12;4.47;;;2.60;;
6689;SDS011;3382;51.576;8.076;2023-04-03T06:44:38;5.03;;;2.43;;
6689;SDS011;3382;51.576;8.076;2023-04-03T06:47:04;7.63;;;3.10;;
6689;SDS011;3382;51.576;8.076;2023-04-03T06:49:29;7.47;;;2.77;;
6689;SDS011;3382;51.576;8.076;2023-04-03T06:51:56;9.83;;;2.87;;
6689;SDS011;3382;51.576;8.076;2023-04-03T06:54:22;7.57;;;2.90;;
6689;SDS011;3382;51.576;8.076;2023-04-03T06:56:48;4.00;;;2.43;;
6689;SDS011;3382;51.576;8.076;2023-04-03T06:59:14;7.83;;;2.77;;
6689;SDS011;3382;51.576;8.076;2023-04-03T07:01:40;6.30;;;2.70;;
6689;SDS011;3382;51.576;8.076;2023-04-03T07:04:06;6.13;;;2.60;;
6689;SDS011;3382;51.576;8.076;2023-04-03T07:06:32;6.00;;;2.50;;
6689;SDS011;3382;51.576;8.076;2023-04-03T07:08:58;5.57;;;2.77;;
6689;SDS011;3382;51.576;8.076;2023-04-03T07:11:25;4.03;;;2.30;;
6689;SDS011;3382;51.576;8.076;2023-04-03T07:13:51;4.90;;;2.33;;
6689;SDS011;3382;51.576;8.076;2023-04-03T07:16:17;9.20;;;3.07;;
6689;SDS011;3382;51.576;8.076;2023-04-03T07:18:42;7.67;;;3.17;;
6689;SDS011;3382;51.576;8.076;2023-04-03T07:21:08;5.93;;;3.00;;
6689;SDS011;3382;51.576;8.076;2023-04-03T07:23:34;5.80;;;2.77;;
6689;SDS011;3382;51.576;8.076;2023-04-03T07:26:00;8.83;;;2.80;;
6689;SDS011;3382;51.576;8.076;2023-04-03T07:28:26;7.53;;;2.57;;
6689;SDS011;3382;51.576;8.076;2023-04-03T07:31:02;5.60;;;2.80;;
6689;SDS011;3382;51.576;8.076;2023-04-03T07:33:33;5.90;;;2.50;;
6689;SDS011;3382;51.576;8.076;2023-04-03T07:36:00;8.73;;;2.90;;
6689;SDS011;3382;51.576;8.076;2023-04-03T07:38:27;7.40;;;3.00;;
6689;SDS011;3382;51.576;8.076;2023-04-03T07:40:52;8.03;;;3.57;;
6689;SDS011;3382;51.576;8.076;2023-04-03T07:43:18;9.77;;;2.90;;
6689;SDS011;3382;51.576;8.076;2023-04-03T07:45:46;8.30;;;3.00;;
6689;SDS011;3382;51.576;8.076;2023-04-03T07:48:14;6.70;;;3.37;;
6689;SDS011;3382;51.576;8.076;2023-04-03T07:50:42;7.90;;;3.30;;
6689;SDS011;3382;51.576;8.076;2023-04-03T07:53:08;7.77;;;3.03;;
6689;SDS011;3382;51.576;8.076;2023-04-03T07:55:34;4.87;;;2.83;;
6689;SDS011;3382;51.576;8.076;2023-04-03T07:58:05;6.53;;;3.00;;
6689;SDS011;3382;51.576;8.076;2023-04-03T08:00:31;7.40;;;3.10;;
6689;SDS011;3382;51.576;8.076;2023-04-03T08:02:56;5.50;;;3.13;;
6689;SDS011;3382;51.576;8.076;2023-04-03T08:05:22;6.30;;;2.93;;
6689;SDS011;3382;51.576;8.076;2023-04-03T08:07:48;8.37;;;3.17;;
6689;SDS011;3382;51.576;8.076;2023-04-03T08:10:14;6.73;;;3.07;;
6689;SDS011;3382;51.576;8.076;2023-04-03T08:12:40;8.57;;;3.03;;
6689;SDS011;3382;51.576;8.076;2023-04-03T08:15:06;8.37;;;3.20;;
6689;SDS011;3382;51.576;8.076;2023-04-03T08:17:33;6.47;;;2.43;;
6689;SDS011;3382;51.576;8.076;2023-04-03T08:19:59;6.23;;;3.30;;
6689;SDS011;3382;51.576;8.076;2023-04-03T08:22:25;5.70;;;2.77;;
6689;SDS011;3382;51.576;8.076;2023-04-03T08:24:51;8.90;;;3.23;;
6689;SDS011;3382;51.576;8.076;2023-04-03T08:27:17;9.37;;;4.30;;
6689;SDS011;3382;51.576;8.076;2023-04-03T08:29:42;6.80;;;3.47;;
6689;SDS011;3382;51.576;8.076;2023-04-03T08:32:08;6.33;;;3.33;;
6689;SDS011;3382;51.576;8.076;2023-04-03T08:34:33;5.73;;;2.80;;
6689;SDS011;3382;51.576;8.076;2023-04-03T08:37:00;5.63;;;3.17;;
6689;SDS011;3382;51.576;8.076;2023-04-03T08:39:26;3.50;;;2.33;;
6689;SDS011;3382;51.576;8.076;2023-04-03T08:41:52;5.27;;;2.63;;
6689;SDS011;3382;51.576;8.076;2023-04-03T08:49:57;6.10;;;2.77;;
6689;SDS011;3382;51.576;8.076;2023-04-03T08:52:42;4.90;;;2.70;;
6689;SDS011;3382;51.576;8.076;2023-04-03T08:55:24;7.97;;;3.00;;
6689;SDS011;3382;51.576;8.076;2023-04-03T08:57:53;6.47;;;2.00;;
6689;SDS011;3382;51.576;8.076;2023-04-03T09:00:47;4.33;;;2.20;;
6689;SDS011;3382;51.576;8.076;2023-04-03T09:03:15;6.27;;;2.47;;
6689;SDS011;3382;51.576;8.076;2023-04-03T09:08:27;4.93;;;2.50;;
6689;SDS011;3382;51.576;8.076;2023-04-03T09:22:46;3.67;;;2.37;;
6689;SDS011;3382;51.576;8.076;2023-04-03T09:25:15;3.93;;;2.37;;
6689;SDS011;3382;51.576;8.076;2023-04-03T09:27:58;2.80;;;2.07;;
6689;SDS011;3382;51.576;8.076;2023-04-03T09:30:25;3.27;;;1.70;;
6689;SDS011;3382;51.576;8.076;2023-04-03T09:32:52;4.10;;;2.20;;
6689;SDS011;3382;51.576;8.076;2023-04-03T09:38:15;3.77;;;1.80;;
6689;SDS011;3382;51.576;8.076;2023-04-03T09:40:36;3.97;;;1.60;;
6689;SDS011;3382;51.576;8.076;2023-04-03T09:45:52;2.83;;;1.67;;
6689;SDS011;3382;51.576;8.076;2023-04-03T09:48:19;1.63;;;1.43;;
6689;SDS011;3382;51.576;8.076;2023-04-03T09:53:41;2.77;;;1.40;;
6689;SDS011;3382;51.576;8.076;2023-04-03T09:58:42;2.53;;;1.40;;
6689;SDS011;3382;51.576;8.076;2023-04-03T10:01:31;3.20;;;1.30;;
6689;SDS011;3382;51.576;8.076;2023-04-03T10:04:03;1.93;;;1.50;;
6689;SDS011;3382;51.576;8.076;2023-04-03T10:06:37;4.80;;;1.50;;
6689;SDS011;3382;51.576;8.076;2023-04-03T10:14:29;2.47;;;1.30;;
6689;SDS011;3382;51.576;8.076;2023-04-03T10:17:16;3.30;;;2.37;;
6689;SDS011;3382;51.576;8.076;2023-04-03T10:28:04;3.00;;;1.60;;
6689;SDS011;3382;51.576;8.076;2023-04-03T10:30:34;1.63;;;1.50;;
6689;SDS011;3382;51.576;8.076;2023-04-03T10:39:02;2.00;;;1.40;;
6689;SDS011;3382;51.576;8.076;2023-04-03T10:52:04;2.33;;;1.60;;
6689;SDS011;3382;51.576;8.076;2023-04-03T10:57:30;3.53;;;1.80;;
6689;SDS011;3382;51.576;8.076;2023-04-03T11:04:58;4.30;;;1.77;;
6689;SDS011;3382;51.576;8.076;2023-04-03T11:07:28;1.97;;;1.40;;
6689;SDS011;3382;51.576;8.076;2023-04-03T11:10:36;3.00;;;1.40;;
6689;SDS011;3382;51.576;8.076;2023-04-03T11:13:08;1.60;;;1.20;;
6689;SDS011;3382;51.576;8.076;2023-04-03T11:15:57;2.07;;;1.37;;
6689;SDS011;3382;51.576;8.076;2023-04-03T11:21:19;2.93;;;1.70;;
6689;SDS011;3382;51.576;8.076;2023-04-03T11:24:16;2.83;;;1.50;;
6689;SDS011;3382;51.576;8.076;2023-04-03T11:26:48;3.40;;;1.40;;
6689;SDS011;3382;51.576;8.076;2023-04-03T11:29:16;3.20;;;1.60;;
6689;SDS011;3382;51.576;8.076;2023-04-03T11:34:19;5.80;;;1.67;;
6689;SDS011;3382;51.576;8.076;2023-04-03T11:36:47;3.73;;;1.50;;
6689;SDS011;3382;51.576;8.076;2023-04-03T11:39:19;1.83;;;1.37;;
6689;SDS011;3382;51.576;8.076;2023-04-03T11:41:45;2.50;;;1.40;;
6689;SDS011;3382;51.576;8.076;2023-04-03T11:46:57;1.80;;;1.37;;
6689;SDS011;3382;51.576;8.076;2023-04-03T12:05:53;3.10;;;1.57;;
6689;SDS011;3382;51.576;8.076;2023-04-03T12:13:41;2.00;;;1.70;;
6689;SDS011;3382;51.576;8.076;2023-04-03T12:16:20;2.13;;;1.33;;
6689;SDS011;3382;51.576;8.076;2023-04-03T12:21:24;4.40;;;1.73;;
6689;SDS011;3382;51.576;8.076;2023-04-03T12:29:27;2.53;;;1.70;;
6689;SDS011;3382;51.576;8.076;2023-04-03T12:40:14;3.63;;;1.97;;
6689;SDS011;3382;51.576;8.076;2023-04-03T12:48:37;3.07;;;1.67;;
6689;SDS011;3382;51.576;8.076;2023-04-03T12:51:16;4.67;;;1.80;;
6689;SDS011;3382;51.576;8.076;2023-04-03T12:53:48;2.33;;;1.60;;
6689;SDS011;3382;51.576;8.076;2023-04-03T12:56:26;2.00;;;1.40;;
6689;SDS011;3382;51.576;8.076;2023-04-03T12:58:54;3.30;;;1.80;;
6689;SDS011;3382;51.576;8.076;2023-04-03T13:01:25;3.90;;;1.93;;
6689;SDS011;3382;51.576;8.076;2023-04-03T13:03:52;3.80;;;1.70;;
6689;SDS011;3382;51.576;8.076;2023-04-03T13:06:28;6.53;;;1.63;;
6689;SDS011;3382;51.576;8.076;2023-04-03T13:09:00;3.00;;;1.70;;
6689;SDS011;3382;51.576;8.076;2023-04-03T13:11:47;2.13;;;1.43;;
6689;SDS011;3382;51.576;8.076;2023-04-03T13:14:17;3.63;;;1.70;;
6689;SDS011;3382;51.576;8.076;2023-04-03T13:16:57;2.80;;;1.63;;
6689;SDS011;3382;51.576;8.076;2023-04-03T13:19:25;6.37;;;3.10;;
6689;SDS011;3382;51.576;8.076;2023-04-03T13:21:56;3.50;;;2.47;;
6689;SDS011;3382;51.576;8.076;2023-04-03T13:24:29;2.50;;;1.50;;
6689;SDS011;3382;51.576;8.076;2023-04-03T13:26:57;3.37;;;1.73;;
6689;SDS011;3382;51.576;8.076;2023-04-03T13:29:28;2.80;;;1.43;;
6689;SDS011;3382;51.576;8.076;2023-04-03T13:31:59;5.77;;;1.60;;
6689;SDS011;3382;51.576;8.076;2023-04-03T13:34:27;3.37;;;1.90;;
6689;SDS011;3382;51.576;8.076;2023-04-03T13:37:00;3.20;;;2.00;;
6689;SDS011;3382;51.576;8.076;2023-04-03T13:39:32;3.80;;;1.70;;
6689;SDS011;3382;51.576;8.076;2023-04-03T13:42:01;5.20;;;1.43;;
6689;SDS011;3382;51.576;8.076;2023-04-03T13:44:48;1.57;;;1.10;;
6689;SDS011;3382;51.576;8.076;2023-04-03T13:47:19;2.63;;;1.83;;
6689;SDS011;3382;51.576;8.076;2023-04-03T13:50:00;2.43;;;1.40;;
6689;SDS011;3382;51.576;8.076;2023-04-03T13:52:53;3.23;;;1.90;;
6689;SDS011;3382;51.576;8.076;2023-04-03T13:55:29;2.37;;;1.67;;
6689;SDS011;3382;51.576;8.076;2023-04-03T13:57:59;1.77;;;1.60;;
6689;SDS011;3382;51.576;8.076;2023-04-03T14:03:22;4.00;;;1.63;;
6689;SDS011;3382;51.576;8.076;2023-04-03T14:05:49;3.33;;;1.83;;
6689;SDS011;3382;51.576;8.076;2023-04-03T14:08:14;4.73;;;2.00;;
6689;SDS011;3382;51.576;8.076;2023-04-03T14:10:41;5.10;;;1.80;;
6689;SDS011;3382;51.576;8.076;2023-04-03T14:13:09;2.57;;;1.70;;
6689;SDS011;3382;51.576;8.076;2023-04-03T14:15:37;3.00;;;1.67;;
6689;SDS011;3382;51.576;8.076;2023-04-03T14:18:02;4.27;;;2.13;;
6689;SDS011;3382;51.576;8.076;2023-04-03T14:20:28;4.53;;;1.97;;
6689;SDS011;3382;51.576;8.076;2023-04-03T14:22:54;2.83;;;1.67;;
6689;SDS011;3382;51.576;8.076;2023-04-03T14:25:21;2.37;;;1.77;;
6689;SDS011;3382;51.576;8.076;2023-04-03T14:27:51;6.37;;;2.07;;
6689;SDS011;3382;51.576;8.076;2023-04-03T14:30:26;2.43;;;1.70;;
6689;SDS011;3382;51.576;8.076;2023-04-03T14:32:53;4.23;;;1.80;;
6689;SDS011;3382;51.576;8.076;2023-04-03T14:35:20;4.03;;;1.97;;
6689;SDS011;3382;51.576;8.076;2023-04-03T14:37:47;2.70;;;1.60;;
6689;SDS011;3382;51.576;8.076;2023-04-03T14:40:18;2.90;;;2.00;;
6689;SDS011;3382;51.576;8.076;2023-04-03T14:42:46;2.87;;;2.00;;
6689;SDS011;3382;51.576;8.076;2023-04-03T14:45:14;4.30;;;2.23;;
6689;SDS011;3382;51.576;8.076;2023-04-03T14:47:42;2.50;;;1.50;;
6689;SDS011;3382;51.576;8.076;2023-04-03T14:50:20;4.77;;;1.77;;
6689;SDS011;3382;51.576;8.076;2023-04-03T14:52:49;3.33;;;1.80;;
6689;SDS011;3382;51.576;8.076;2023-04-03T14:55:19;3.53;;;1.70;;
6689;SDS011;3382;51.576;8.076;2023-04-03T14:57:47;2.70;;;1.50;;
6689;SDS011;3382;51.576;8.076;2023-04-03T15:00:13;2.77;;;1.80;;
6689;SDS011;3382;51.576;8.076;2023-04-03T15:02:41;8.73;;;1.60;;
6689;SDS011;3382;51.576;8.076;2023-04-03T15:05:08;4.50;;;1.50;;
6689;SDS011;3382;51.576;8.076;2023-04-03T15:07:36;2.83;;;1.80;;
6689;SDS011;3382;51.576;8.076;2023-04-03T15:10:18;4.70;;;1.87;;
6689;SDS011;3382;51.576;8.076;2023-04-03T15:12:47;3.23;;;1.83;;
6689;SDS011;3382;51.576;8.076;2023-04-03T15:15:13;2.73;;;1.80;;
6689;SDS011;3382;51.576;8.076;2023-04-03T15:17:40;2.07;;;1.57;;
6689;SDS011;3382;51.576;8.076;2023-04-03T15:20:14;2.17;;;1.73;;
6689;SDS011;3382;51.576;8.076;2023-04-03T15:22:41;3.80;;;1.73;;
6689;SDS011;3382;51.576;8.076;2023-04-03T15:25:07;2.13;;;1.70;;
6689;SDS011;3382;51.576;8.076;2023-04-03T15:27:33;2.10;;;1.43;;
6689;SDS011;3382;51.576;8.076;2023-04-03T15:29:59;2.60;;;1.80;;
6689;SDS011;3382;51.576;8.076;2023-04-03T15:32:25;2.27;;;1.50;;
6689;SDS011;3382;51.576;8.076;2023-04-03T15:34:51;4.10;;;1.77;;
6689;SDS011;3382;51.576;8.076;2023-04-03T15:37:16;3.30;;;1.80;;
6689;SDS011;3382;51.576;8.076;2023-04-03T15:39:42;2.63;;;1.80;;
6689;SDS011;3382;51.576;8.076;2023-04-03T15:42:07;2.10;;;1.47;;
6689;SDS011;3382;51.576;8.076;2023-04-03T15:44:34;3.43;;;2.10;;
6689;SDS011;3382;51.576;8.076;2023-04-03T15:47:00;1.87;;;1.40;;
6689;SDS011;3382;51.576;8.076;2023-04-03T15:49:26;2.90;;;1.73;;
6689;SDS011;3382;51.576;8.076;2023-04-03T15:51:53;2.93;;;1.70;;
6689;SDS011;3382;51.576;8.076;2023-04-03T15:54:21;2.60;;;1.60;;
6689;SDS011;3382;51.576;8.076;2023-04-03T15:56:48;4.77;;;2.03;;
6689;SDS011;3382;51.576;8.076;2023-04-03T15:59:14;2.70;;;1.63;;
6689;SDS011;3382;51.576;8.076;2023-04-03T16:01:40;2.73;;;2.30;;
6689;SDS011;3382;51.576;8.076;2023-04-03T16:04:07;4.00;;;1.70;;
6689;SDS011;3382;51.576;8.076;2023-04-03T16:06:34;4.63;;;1.70;;
6689;SDS011;3382;51.576;8.076;2023-04-03T16:08:59;2.20;;;1.63;;
6689;SDS011;3382;51.576;8.076;2023-04-03T16:11:26;2.27;;;1.73;;
6689;SDS011;3382;51.576;8.076;2023-04-03T16:13:52;3.00;;;1.70;;
6689;SDS011;3382;51.576;8.076;2023-04-03T16:16:18;3.90;;;1.87;;
6689;SDS011;3382;51.576;8.076;2023-04-03T16:18:44;3.30;;;1.80;;
6689;SDS011;3382;51.576;8.076;2023-04-03T16:21:11;2.27;;;1.70;;
6689;SDS011;3382;51.576;8.076;2023-04-03T16:23:38;4.20;;;1.77;;
6689;SDS011;3382;51.576;8.076;2023-04-03T16:26:05;2.93;;;1.60;;
6689;SDS011;3382;51.576;8.076;2023-04-03T16:28:30;3.33;;;1.77;;
6689;SDS011;3382;51.576;8.076;2023-04-03T16:30:56;3.47;;;1.87;;
6689;SDS011;3382;51.576;8.076;2023-04-03T16:33:23;2.83;;;1.93;;
6689;SDS011;3382;51.576;8.076;2023-04-03T16:35:49;2.23;;;1.80;;
6689;SDS011;3382;51.576;8.076;2023-04-03T16:38:17;2.23;;;1.87;;
6689;SDS011;3382;51.576;8.076;2023-04-03T16:40:43;2.17;;;1.77;;
6689;SDS011;3382;51.576;8.076;2023-04-03T16:43:10;2.27;;;1.80;;
6689;SDS011;3382;51.576;8.076;2023-04-03T16:45:36;2.67;;;1.97;;
6689;SDS011;3382;51.576;8.076;2023-04-03T16:48:02;3.73;;;1.67;;
6689;SDS011;3382;51.576;8.076;2023-04-03T16:50:28;4.70;;;1.90;;
6689;SDS011;3382;51.576;8.076;2023-04-03T16:52:53;3.80;;;2.20;;
6689;SDS011;3382;51.576;8.076;2023-04-03T16:55:19;4.17;;;1.80;;
6689;SDS011;3382;51.576;8.076;2023-04-03T16:57:45;4.37;;;1.70;;
6689;SDS011;3382;51.576;8.076;2023-04-03T17:00:11;4.53;;;2.03;;
6689;SDS011;3382;51.576;8.076;2023-04-03T17:02:38;3.77;;;1.67;;
6689;SDS011;3382;51.576;8.076;2023-04-03T17:05:04;5.70;;;2.00;;
6689;SDS011;3382;51.576;8.076;2023-04-03T17:07:31;2.40;;;1.63;;
6689;SDS011;3382;51.576;8.076;2023-04-03T17:09:57;2.57;;;1.67;;
6689;SDS011;3382;51.576;8.076;2023-04-03T17:12:22;3.97;;;1.83;;
6689;SDS011;3382;51.576;8.076;2023-04-03T17:14:48;4.13;;;1.83;;
6689;SDS011;3382;51.576;8.076;2023-04-03T17:17:14;3.23;;;2.03;;
6689;SDS011;3382;51.576;8.076;2023-04-03T17:19:40;3.40;;;2.23;;
6689;SDS011;3382;51.576;8.076;2023-04-03T17:22:07;6.37;;;2.37;;
6689;SDS011;3382;51.576;8.076;2023-04-03T17:24:34;2.83;;;1.80;;
6689;SDS011;3382;51.576;8.076;2023-04-03T17:27:00;4.03;;;1.80;;
6689;SDS011;3382;51.576;8.076;2023-04-03T17:29:26;6.57;;;1.80;;
6689;SDS011;3382;51.576;8.076;2023-04-03T17:31:51;2.30;;;1.50;;